EPWA Airport Information

Runway Information
Runway 11 Length 9186 ft width 164 ft
Elevation 361 ft Threshold 0 ft Heading 115
Runway 29 Length 9186 ft Width 164 ft
Elevation 344 ft Threshold 1640 ft Heading 295
Runway 15 Length 12106 ft width 197 ft
Elevation 351 ft Threshold 0 ft Heading 152
Runway 33 Length 12106 ft Width 197 ft
Elevation 351 ft Threshold 0 ft Heading 332
Airport Frequencies
Type APP Name WARSZAWA A Frequency 128.8 MHZ
Type ATIS Name ATIS Frequency 120.45 MHZ
Type CLD Name CLNC DEL Frequency 121.6 MHZ
Type DIR Name WARSZAWA D Frequency 129.375 MHZ
Type GND Name GND Frequency 121.9 MHZ
Type TWR Name TWR Frequency 118.3 MHZ
Airport Navaids
Type VOR-DME Name Okecie Frequency 113400 KHZ
Type NDB Name Piaseczno Frequency 330 KHZ
Type NDB Name Warszawa Frequency 336 KHZ
Type NDB Name Warszawa Frequency 412 KHZ
Type VOR-DME Name Zaborowek Frequency 114900 KHZ
Airport Weather Information & NOTAM
ADDS - METARS form results

(0803 UTC 22 May 2018)
 
METAR text: EPWA 220800Z 12010KT CAVOK 19/10 Q1017 NOSIG
Conditions at: EPWA (WARSAW/OKECIE , PL) observed 0800 UTC 22 May 2018
Temperature: 19.0°C (66°F)
Dewpoint: 10.0°C (50°F) [RH = 56%]
Pressure (altimeter): 30.03 inches Hg (1017.0 mb)
Winds: from the ESE (120 degrees) at 12 MPH (10 knots; 5.2 m/s)
Visibility: 6 or more miles (10+ km)
Ceiling: ceiling and visibility are OK
Clouds: unknown
Weather: no significant weather observed at this time

METAR text: EPWA 220730Z 12009KT CAVOK 18/09 Q1018 NOSIG
Conditions at: EPWA (WARSAW/OKECIE , PL) observed 0730 UTC 22 May 2018
Temperature: 18.0°C (64°F)
Dewpoint: 9.0°C (48°F) [RH = 56%]
Pressure (altimeter): 30.06 inches Hg (1018.0 mb)
Winds: from the ESE (120 degrees) at 10 MPH (9 knots; 4.7 m/s)
Visibility: 6 or more miles (10+ km)
Ceiling: ceiling and visibility are OK
Clouds: unknown
Weather: no significant weather observed at this time